• Join FlightAware (Why Join?)
  • Login
  • US Flag 
11:44PM EDT


 

Airport Tracker/Info


-or-


 

Live Flight TrackerFlight Track Log ✈ AAL963 ✈ 10-Jun-2013 ✈ KDFW - SBGR / GRU

Flight Track Log - Related Links

Times and Time Zones

All times are in EDT time to prevent confusion due to time zone crossing. See the AAL963 flight status page for this flight to view local times or setup timezone preferences in your user account.

Time Position Orientation Groundspeed Altitude Reporting Facility
EDT Latitude Longitude Course Direction KTS MPH feet Rate Location/Type
09:34PM 32.8680 -97.0490 166° South 178 205 1,700  Level FlightAware
09:34PM 32.8460 -97.0510 184° South 188 216 2,200 720 Climbing FlightAware
09:35PM 32.8230 -97.0560 190° South 224 258 2,400 960 Climbing FlightAware
09:35PM 32.7880 -97.0650 192° South 242 278 3,100 1,740 Climbing FlightAware
09:36PM 32.7550 -97.0720 190° South 251 289 4,000 2,100 Climbing FlightAware
09:36PM 32.7200 -97.0800 191° South 252 290 5,200 1,800 Climbing FlightAware
09:37PM 32.7090 -97.0820 189° South 252 290 5,500 1,800 Climbing FlightAware
09:37PM 32.6580 -97.0600 160° South 264 304 6,900 2,160 Climbing FlightAware
09:38PM 32.6320 -97.0430 151° Southeast 270 311 7,700 1,920 Climbing FlightAware
09:38PM 32.6040 -97.0250 152° Southeast 275 316 8,500 2,160 Climbing FlightAware
09:39PM 32.5660 -97.0000 151° Southeast 276 318 9,800 1,620 Climbing FlightAware
09:39PM 32.5180 -96.9690 151° Southeast 307 353 10,500 780 Climbing FlightAware
09:40PM 32.4580 -96.9300 151° Southeast 346 398 11,000 780 Climbing FlightAware
09:41PM 32.3990 -96.8910 151° Southeast 376 433 11,600 1,200 Climbing FlightAware
09:41PM 32.3300 -96.8710 166° South 396 456 12,600 1,560 Climbing FlightAware
09:42PM 32.2580 -96.8730 181° South 408 470 13,700 1,740 Climbing FlightAware
09:43PM 32.1680 -96.8750 181° South 417 480 15,100 1,800 Climbing FlightAware
09:43PM 32.1351 -96.8748 180° South 15,600 1,860 Climbing FlightAware ADS-B
09:43PM 32.1291 -96.8744 177° South 421 484 15,700 2,520 Climbing FlightAware ADS-B
09:44PM 32.0708 -96.8658 173° South 414 476 17,000 2,160 Climbing FlightAware ADS-B
09:44PM 32.0060 -96.8560 173° South 416 479 18,100 1,680 Climbing FlightAware
09:44PM 31.9762 -96.8511 172° South 421 484 18,400 1,320 Climbing FlightAware ADS-B
09:45PM 31.9168 -96.8421 173° South 429 494 19,100 1,380 Climbing FlightAware ADS-B
09:45PM 31.8567 -96.8329 173° South 438 504 19,800 1,260 Climbing FlightAware ADS-B
09:46PM 31.8248 -96.8262 170° South 442 509 20,100 1,080 Climbing FlightAware ADS-B
09:47PM 31.7006 -96.7976 169° South 462 532 21,200 1,140 Climbing FlightAware ADS-B
09:47PM 31.6366 -96.7827 169° South 467 537 21,900 1,440 Climbing FlightAware ADS-B
09:49PM 31.3781 -96.7025 163° South 479 551 24,900 1,320 Climbing FlightAware ADS-B
09:51PM 31.2056 -96.6409 163° South 489 563 26,500 1,140 Climbing FlightAware ADS-B
09:51PM 31.1785 -96.6242 149° Southeast 484 557 26,700 900 Climbing FlightAware ADS-B
09:51PM 31.1288 -96.5707 137° Southeast 484 557 27,200 960 Climbing FlightAware ADS-B
09:52PM 31.0786 -96.5165 137° Southeast 490 564 27,700 840 Climbing FlightAware ADS-B
09:52PM 31.0299 -96.4599 135° Southeast 492 566 28,100 900 Climbing FlightAware ADS-B
09:53PM 30.9828 -96.4008 133° Southeast 496 571 28,600 840 Climbing FlightAware ADS-B
09:53PM 30.9345 -96.3402 133° Southeast 502 578 29,000 1,080 Climbing FlightAware ADS-B
09:54PM 30.8386 -96.2215 133° Southeast 500 575 30,300 1,020 Climbing FlightAware ADS-B
09:56PM 30.6432 -95.9819 134° Southeast 507 583 32,100 900 Climbing FlightAware ADS-B
09:57PM 30.5944 -95.9222 134° Southeast 504 580 32,700 840 Climbing FlightAware ADS-B
09:57PM 30.5449 -95.8617 134° Southeast 503 579 33,000 120 Climbing FlightAware ADS-B
09:59PM 30.3982 -95.6831 134° Southeast 505 581 33,000  Level FlightAware ADS-B
10:00PM 30.2983 -95.5618 134° Southeast 508 585 33,000  Level FlightAware ADS-B
10:01PM 30.1972 -95.4395 134° Southeast 510 587 33,000  Level FlightAware ADS-B
10:02PM 30.1484 -95.3806 134° Southeast 511 588 33,000  Level FlightAware ADS-B
10:03PM 30.0492 -95.2611 134° Southeast 512 589 33,000  Level FlightAware ADS-B
10:03PM 29.9995 -95.2013 134° Southeast 513 590 33,000  Level FlightAware ADS-B
10:04PM 29.8994 -95.0813 134° Southeast 513 590 33,000  Level FlightAware ADS-B
10:05PM 29.8496 -95.0218 134° Southeast 512 589 33,000  Level FlightAware ADS-B
10:05PM 29.8001 -94.9628 134° Southeast 511 588 33,000  Level FlightAware ADS-B
10:07PM 29.6514 -94.7857 134° Southeast 511 588 33,000  Level FlightAware ADS-B
10:08PM 29.5510 -94.6666 134° Southeast 516 594 33,000  Level FlightAware ADS-B
10:08PM 29.5009 -94.6074 134° Southeast 517 595 33,000  Level FlightAware ADS-B
10:10PM 29.3484 -94.4275 134° Southeast 519 597 33,000  Level FlightAware ADS-B
10:10PM 29.2971 -94.3673 134° Southeast 520 598 33,000  Level FlightAware ADS-B
10:11PM 29.2614 -94.3225 134° Southeast 519 597 33,000  Level Houston Center
10:12PM 29.1636 -94.2089 135° Southeast 517 595 33,000  Level Houston Center
10:13PM 29.0608 -94.0922 135° Southeast 517 595 33,000  Level Houston Center
10:14PM 28.9625 -93.9747 134° Southeast 514 592 33,000  Level Houston Center
10:15PM 28.8644 -93.8569 134° Southeast 513 590 33,000  Level Houston Center
10:16PM 28.7628 -93.7436 136° Southeast 512 589 33,000  Level Houston Center
10:17PM 28.6644 -93.6306 135° Southeast 505 581 33,000  Level Houston Center
10:18PM 28.5664 -93.5178 135° Southeast 501 577 33,000  Level Houston Center
10:19PM 28.4478 -93.3800 134° Southeast 505 581 33,000  Level Houston Center
10:20PM 28.3492 -93.2683 135° Southeast 504 580 33,000  Level Houston Center
10:21PM 28.2508 -93.1556 135° Southeast 506 582 33,000  Level Houston Center
10:22PM 28.1511 -93.0408 135° Southeast 511 588 33,000  Level Houston Center
10:23PM 28.0511 -92.9283 135° Southeast 510 587 33,000  Level Houston Center
10:24PM 27.9500 -92.8144 135° Southeast 512 589 33,000 -60 Level Houston Center
10:25PM 27.8500 -92.7008 135° Southeast 510 587 32,900  Descending Houston Center
10:26PM 27.7494 -92.5906 136° Southeast 507 583 33,000  Climbing Houston Center
10:27PM 27.6489 -92.4767 135° Southeast 510 587 33,000  Level Houston Center
10:28PM 27.5478 -92.3650 136° Southeast 509 586 33,000  Level Houston Center
10:29PM 27.4269 -92.2303 135° Southeast 510 587 33,000  Level Houston Center
10:30PM 27.3272 -92.1192 135° Southeast 507 583 33,000  Level Houston Center
10:31PM 27.2256 -92.0058 135° Southeast 510 587 33,000  Level Houston Center
10:32PM 27.1167 -91.9047 140° Southeast 509 586 33,000  Level Houston Center
10:33PM 27.0019 -91.8119 144° Southeast 507 583 33,000  Level Houston Center
10:34PM 26.8878 -91.7197 144° Southeast 507 583 33,000  Level Houston Center
10:36PM 26.7237 -91.5860 144° Southeast  Level FlightAware Approximate
10:43PM 25.9684 -90.9875 145° Southeast  Level FlightAware Approximate
10:44PM 25.8597 -90.9036 145° Southeast  Level FlightAware Approximate
10:45PM 25.7512 -90.8193 145° Southeast  Level FlightAware Approximate
10:46PM 25.6429 -90.7350 145° Southeast  Level FlightAware Approximate
10:47PM 25.5345 -90.6508 145° Southeast  Level FlightAware Approximate
10:48PM 25.4260 -90.5668 145° Southeast  Level FlightAware Approximate
10:49PM 25.3175 -90.4829 145° Southeast  Level FlightAware Approximate
10:50PM 25.2089 -90.3992 145° Southeast  Level FlightAware Approximate
10:51PM 25.1006 -90.3152 145° Southeast  Level FlightAware Approximate
10:52PM 24.9925 -90.2310 145° Southeast  Level FlightAware Approximate
10:53PM 24.8843 -90.1469 145° Southeast  Level FlightAware Approximate
10:54PM 24.7760 -90.0630 145° Southeast  Level FlightAware Approximate
10:55PM 24.6677 -89.9793 145° Southeast  Level FlightAware Approximate
10:56PM 24.5593 -89.8957 145° Southeast  Level FlightAware Approximate
10:57PM 24.4561 -89.8053 137° Southeast  Level FlightAware Approximate
10:58PM 24.3595 -89.7059 137° Southeast  Level FlightAware Approximate
10:59PM 24.2628 -89.6067 137° Southeast  Level FlightAware Approximate
11:00PM 24.1661 -89.5076 137° Southeast  Level FlightAware Approximate
11:00PM 24.0320 -89.4980 137° Southeast 501 577 33,500  Level FlightAware
11:00PM 23.9380 -89.4280 146° Southeast 500 575 33,900 600 Climbing FlightAware
11:01PM 23.8440 -89.3570 145° Southeast 502 578 34,400 480 Climbing FlightAware
11:02PM 23.7440 -89.2820 146° Southeast 501 577 34,800 360 Climbing FlightAware
11:03PM 23.6740 -89.2290 145° Southeast 500 575 35,000 120 Climbing FlightAware
11:03PM 23.5950 -89.1690 145° Southeast 501 577 35,000  Level FlightAware
11:04PM 23.4990 -89.0980 146° Southeast 500 575 35,000  Level FlightAware
11:05PM 23.4150 -89.0350 145° Southeast 499 574 35,000  Level FlightAware
11:06PM 23.3440 -88.9820 146° Southeast 499 574 35,000  Level FlightAware
11:06PM 23.2690 -88.9260 146° Southeast 499 574 35,000  Level FlightAware
11:07PM 23.1900 -88.8680 146° Southeast 499 574 35,000  Level FlightAware
11:08PM 23.1110 -88.8090 146° Southeast 498 573 35,000  Level FlightAware
11:08PM 23.0190 -88.7400 145° Southeast 492 566 35,000  Level FlightAware
11:09PM 22.9110 -88.6600 146° Southeast 493 567 35,000  Level FlightAware
11:10PM 22.8530 -88.6170 146° Southeast 494 568 35,000  Level FlightAware
11:11PM 22.7250 -88.5230 146° Southeast 494 568 35,000  Level FlightAware
11:12PM 22.6500 -88.4680 146° Southeast 495 570 35,000  Level FlightAware
11:12PM 22.5680 -88.3980 142° Southeast 500 575 35,000  Level FlightAware
11:13PM 22.4870 -88.3170 137° Southeast 501 577 35,000  Level FlightAware
11:14PM 22.4260 -88.2550 137° Southeast 502 578 35,000  Level FlightAware
11:15PM 22.3390 -88.1660 137° Southeast 504 580 35,000  Level FlightAware
11:15PM 22.2800 -88.1060 137° Southeast 505 581 35,000  Level FlightAware
11:16PM 22.1980 -88.0240 137° Southeast 505 581 35,000  Level FlightAware
11:17PM 22.1240 -87.9500 137° Southeast 505 581 35,000  Level FlightAware
11:17PM 22.0540 -87.8790 137° Southeast 505 581 35,000  Level FlightAware
11:18PM 21.9760 -87.7990 136° Southeast 507 583 35,000  Level FlightAware
11:19PM 21.9000 -87.7230 137° Southeast 507 583 35,000  Level FlightAware
11:20PM 21.8340 -87.6580 138° Southeast 508 585 35,000  Level FlightAware
11:20PM 21.7560 -87.5800 137° Southeast 509 586 35,000  Level FlightAware
11:21PM 21.6870 -87.5120 138° Southeast 510 587 35,000  Level FlightAware
11:22PM 21.6130 -87.4380 137° Southeast 511 588 35,000  Level FlightAware
11:22PM 21.5340 -87.3600 137° Southeast 513 590 35,000  Level FlightAware
11:23PM 21.4620 -87.2880 137° Southeast 512 589 35,000  Level FlightAware
11:24PM 21.3910 -87.2180 137° Southeast 510 587 35,000  Level FlightAware
11:24PM 21.3190 -87.1470 137° Southeast 508 585 35,000  Level FlightAware
11:25PM 21.1850 -87.0160 138° Southeast 506 582 35,000  Level FlightAware
11:26PM 21.1110 -86.9430 137° Southeast 506 582 35,000  Level FlightAware
11:27PM 21.0450 -86.8780 137° Southeast 505 581 35,000  Level FlightAware
11:27PM 20.9620 -86.7970 138° Southeast 504 580 35,000  Level FlightAware
11:28PM 20.9170 -86.7530 138° Southeast 504 580 35,000  Level FlightAware
11:29PM 20.8240 -86.6630 138° Southeast 506 582 35,000  Level FlightAware
11:29PM 20.7640 -86.6050 138° Southeast 507 583 35,000  Level FlightAware
11:30PM 20.6930 -86.5370 138° Southeast 508 585 35,000  Level FlightAware
11:31PM 20.6040 -86.4500 138° Southeast 509 586 35,000  Level FlightAware
11:32PM 20.5150 -86.3630 138° Southeast 509 586 35,000  Level FlightAware
11:33PM 20.4440 -86.2930 137° Southeast 509 586 35,000  Level FlightAware
11:33PM 20.3900 -86.2390 137° Southeast 509 586 35,000  Level FlightAware
11:34PM 20.3360 -86.1850 137° Southeast 509 586 35,000  Level FlightAware
11:35PM 20.2660 -86.1150 137° Southeast 509 586 35,000  Level FlightAware
11:35PM 20.1450 -86.0090 141° Southeast 499 574 35,000  Level FlightAware
11:36PM 20.0920 -85.9570 137° Southeast 499 574 35,000  Level FlightAware
11:37PM 20.0220 -85.8870 137° Southeast 499 574 35,000  Level FlightAware
11:37PM 19.9700 -85.8360 137° Southeast 499 574 35,000  Level FlightAware
11:38PM 19.9010 -85.7670 137° Southeast 499 574 35,000  Level FlightAware
11:39PM 19.8500 -85.7160 137° Southeast 499 574 35,000  Level FlightAware
11:39PM 19.7950 -85.6620 137° Southeast 499 574 35,000  Level FlightAware
11:40PM 19.7260 -85.5940 137° Southeast 499 574 35,000  Level FlightAware
11:41PM 19.6730 -85.5410 137° Southeast 499 574 35,000  Level FlightAware
11:42PM 19.6010 -85.4700 137° Southeast 499 574 35,000  Level FlightAware
11:42PM 19.5500 -85.4190 137° Southeast 499 574 35,000  Level FlightAware
11:43PM 19.4790 -85.3490 137° Southeast 499 574 35,000  Level FlightAware
11:44PM 19.4280 -85.2980 137° Southeast 499 574 35,000  Level FlightAware
11:44PM 19.3620 -85.2330 137° Southeast 499 574 35,000  Level FlightAware
11:45PM 19.3130 -85.1850 137° Southeast 499 574 35,000  Level FlightAware
11:48PM 19.0666 -84.9408 137° Southeast  Level Estimated
11:49PM 18.9699 -84.8452 137° Southeast  Level Estimated
11:50PM 18.8732 -84.7497 137° Southeast  Level Estimated
11:51PM 18.7764 -84.6544 137° Southeast  Level Estimated
11:52PM 18.6795 -84.5591 137° Southeast  Level Estimated
11:53PM 18.5826 -84.4640 137° Southeast  Level Estimated
11:54PM 18.4857 -84.3689 137° Southeast  Level Estimated
11:55PM 18.3887 -84.2740 137° Southeast  Level Estimated
11:56PM 18.2917 -84.1792 137° Southeast  Level Estimated
11:57PM 18.1946 -84.0845 137° Southeast  Level Estimated
11:58PM 18.0975 -83.9899 137° Southeast  Level Estimated
11:59PM 18.0003 -83.8954 137° Southeast  Level Estimated
12:00AM 17.9031 -83.8010 137° Southeast  Level Estimated
12:01AM 17.8058 -83.7067 137° Southeast  Level Estimated
12:02AM 17.7085 -83.6125 137° Southeast  Level Estimated
12:03AM 17.6111 -83.5184 137° Southeast  Level Estimated
12:04AM 17.5137 -83.4244 137° Southeast  Level Estimated
12:05AM 17.4163 -83.3305 137° Southeast  Level Estimated
12:06AM 17.3188 -83.2367 137° Southeast  Level Estimated
12:07AM 17.2213 -83.1430 137° Southeast  Level Estimated
12:08AM 17.1237 -83.0494 137° Southeast  Level Estimated
12:09AM 17.0261 -82.9559 138° Southeast  Level Estimated
12:10AM 16.9284 -82.8626 138° Southeast  Level Estimated
12:11AM 16.8307 -82.7693 138° Southeast  Level Estimated
12:12AM 16.7330 -82.6761 138° Southeast  Level Estimated
12:13AM 16.6352 -82.5830 138° Southeast  Level Estimated
12:14AM 16.5373 -82.4900 138° Southeast  Level Estimated
12:15AM 16.4395 -82.3970 138° Southeast  Level Estimated
12:16AM 16.3416 -82.3042 138° Southeast  Level Estimated
12:17AM 16.2436 -82.2115 138° Southeast  Level Estimated
12:18AM 16.1456 -82.1188 138° Southeast  Level Estimated
12:19AM 16.0476 -82.0263 138° Southeast  Level Estimated
12:20AM 15.9495 -81.9339 138° Southeast  Level Estimated
12:21AM 15.8514 -81.8415 138° Southeast  Level Estimated
12:22AM 15.7533 -81.7492 138° Southeast  Level Estimated
12:23AM 15.6551 -81.6570 138° Southeast  Level Estimated
12:24AM 15.5569 -81.5649 138° Southeast  Level Estimated
12:25AM 15.4586 -81.4729 138° Southeast  Level Estimated
12:26AM 15.3603 -81.3810 138° Southeast  Level Estimated
12:27AM 15.2619 -81.2892 138° Southeast  Level Estimated
12:28AM 15.1636 -81.1974 138° Southeast  Level Estimated
12:29AM 15.0652 -81.1058 138° Southeast  Level Estimated
12:30AM 14.9667 -81.0142 138° Southeast  Level Estimated
12:31AM 14.8682 -80.9227 138° Southeast  Level Estimated
12:32AM 14.7697 -80.8313 138° Southeast  Level Estimated
12:33AM 14.6711 -80.7400 138° Southeast  Level Estimated
12:34AM 14.5725 -80.6487 138° Southeast  Level Estimated
12:35AM 14.4739 -80.5575 138° Southeast  Level Estimated
12:36AM 14.3752 -80.4665 138° Southeast  Level Estimated
12:37AM 14.2767 -80.3756 138° Southeast  Level Estimated
12:38AM 14.1782 -80.2849 138° Southeast  Level Estimated
12:39AM 14.0796 -80.1942 138° Southeast  Level Estimated
12:40AM 13.9809 -80.1036 138° Southeast  Level Estimated
12:41AM 13.8823 -80.0131 138° Southeast  Level Estimated
12:42AM 13.7836 -79.9226 138° Southeast  Level Estimated
12:43AM 13.6848 -79.8322 138° Southeast  Level Estimated
12:44AM 13.5861 -79.7419 138° Southeast  Level Estimated
12:45AM 13.4873 -79.6517 138° Southeast  Level Estimated
12:46AM 13.3885 -79.5616 138° Southeast  Level Estimated
12:47AM 13.2896 -79.4715 138° Southeast  Level Estimated
12:48AM 13.1907 -79.3815 138° Southeast  Level Estimated
12:49AM 13.0918 -79.2916 138° Southeast  Level Estimated
12:50AM 12.9928 -79.2017 138° Southeast  Level Estimated
12:51AM 12.8939 -79.1119 139° Southeast  Level Estimated
12:52AM 12.7949 -79.0222 139° Southeast  Level Estimated
12:53AM 12.6958 -78.9326 139° Southeast  Level Estimated
12:54AM 12.5967 -78.8430 139° Southeast  Level Estimated
12:55AM 12.4976 -78.7535 139° Southeast  Level Estimated
12:56AM 12.3985 -78.6641 139° Southeast  Level Estimated
12:57AM 12.2993 -78.5747 139° Southeast  Level Estimated
12:58AM 12.2002 -78.4854 139° Southeast  Level Estimated
12:59AM 12.1009 -78.3962 139° Southeast  Level Estimated
12:59AM 11.4200 -77.7740 139° Southeast 490 564 35,000  Level FlightAware
01:00AM 12.0017 -78.3070 139° Southeast  Level Estimated
01:00AM 11.3640 -77.7290 142° Southeast 490 564 35,000  Level FlightAware
01:00AM 11.3090 -77.6850 142° Southeast 490 564 35,000  Level FlightAware
01:01AM 11.2380 -77.6290 142° Southeast 490 564 35,000  Level FlightAware
01:02AM 11.1820 -77.5840 142° Southeast 490 564 35,000  Level FlightAware
01:03AM 11.0590 -77.4940 144° Southeast 488 562 35,000  Level FlightAware
01:03AM 10.9710 -77.4260 143° Southeast 493 567 35,000  Level FlightAware
01:04AM 10.9020 -77.3640 139° Southeast 486 559 35,000  Level FlightAware
01:05AM 10.8280 -77.2940 137° Southeast 486 559 35,000  Level FlightAware
01:05AM 10.7590 -77.2300 138° Southeast 486 559 35,000 60 Level FlightAware
01:06AM 10.6910 -77.1670 138° Southeast 486 559 35,100 480 Climbing FlightAware
01:07AM 10.6200 -77.1010 138° Southeast 486 559 35,700 840 Climbing FlightAware
01:07AM 10.5490 -77.0340 137° Southeast 486 559 36,300 600 Climbing FlightAware
01:08AM 10.4690 -76.9580 137° Southeast 484 557 36,700 420 Climbing FlightAware
01:09AM 10.3850 -76.8820 138° Southeast 482 555 37,000 180 Climbing FlightAware
01:10AM 10.3130 -76.8150 138° Southeast 481 554 37,000  Level FlightAware
01:10AM 10.2470 -76.7540 138° Southeast 481 554 37,000  Level FlightAware
01:11AM 10.1720 -76.6840 137° Southeast 485 558 37,000  Level FlightAware
01:12AM 10.0800 -76.5990 138° Southeast 483 556 37,000  Level FlightAware
01:13AM 9.9920 -76.5170 137° Southeast 480 552 37,000  Level FlightAware
01:14AM 9.8990 -76.4320 138° Southeast 479 551 37,000  Level FlightAware
01:15AM 9.8360 -76.3730 137° Southeast 478 550 37,000  Level FlightAware
01:16AM 9.7340 -76.2790 138° Southeast 480 552 37,000  Level FlightAware
01:16AM 9.6720 -76.2220 138° Southeast 481 554 37,000  Level FlightAware
01:17AM 9.6210 -76.1730 137° Southeast 481 554 37,000  Level FlightAware
01:18AM 9.5540 -76.1100 137° Southeast 481 554 37,000  Level FlightAware
01:19AM 9.4710 -76.0320 137° Southeast 481 554 37,000  Level FlightAware
01:19AM 9.4200 -75.9840 137° Southeast 481 554 37,000  Level FlightAware
01:20AM 9.3540 -75.9210 137° Southeast 481 554 37,000  Level FlightAware
01:21AM 9.3040 -75.8740 137° Southeast 481 554 37,000  Level FlightAware
01:22AM 9.2380 -75.8110 137° Southeast 481 554 37,000  Level FlightAware
01:23AM 9.0490 -75.6480 140° Southeast 491 565 37,000  Level FlightAware
01:23AM 8.9680 -75.5730 138° Southeast 491 565 37,000  Level FlightAware
01:24AM 8.8890 -75.5020 138° Southeast 492 566 37,000  Level FlightAware
01:25AM 8.8320 -75.4480 137° Southeast 492 566 37,000  Level FlightAware
01:25AM 8.7550 -75.3780 138° Southeast 494 568 37,000  Level FlightAware
01:26AM 8.6930 -75.3220 138° Southeast 495 570 37,000  Level FlightAware
01:27AM 8.6390 -75.2730 138° Southeast 495 570 37,000  Level FlightAware
01:28AM 8.5700 -75.2100 138° Southeast 495 570 37,000  Level FlightAware
01:28AM 8.5210 -75.1650 138° Southeast 495 570 37,000  Level FlightAware
01:29AM 8.4540 -75.1040 138° Southeast 495 570 37,000  Level FlightAware
01:30AM 8.3850 -75.0410 138° Southeast 495 570 37,000  Level FlightAware
01:30AM 8.3310 -74.9920 138° Southeast 495 570 37,000  Level FlightAware
01:31AM 8.2760 -74.9420 138° Southeast 495 570 37,000  Level FlightAware
01:32AM 8.2070 -74.8790 138° Southeast 495 570 37,000  Level FlightAware
01:32AM 8.1550 -74.8320 138° Southeast 495 570 37,000  Level FlightAware
01:33AM 8.0880 -74.7710 138° Southeast 495 570 37,000  Level FlightAware
01:34AM 8.0190 -74.7080 138° Southeast 495 570 37,000  Level FlightAware
01:35AM 7.9650 -74.6590 138° Southeast 495 570 37,000  Level FlightAware
01:35AM 7.9120 -74.6110 138° Southeast 495 570 37,000 -60 Level FlightAware
01:38AM 7.6772 -74.4029 138° Southeast  Level FlightAware Approximate
01:39AM 7.5793 -74.3134 138° Southeast  Level FlightAware Approximate
01:40AM 7.4814 -74.2239 138° Southeast  Level FlightAware Approximate
01:41AM 7.3835 -74.1345 138° Southeast  Level FlightAware Approximate
01:42AM 7.2855 -74.0451 138° Southeast  Level FlightAware Approximate
01:43AM 7.1876 -73.9557 138° Southeast  Level FlightAware Approximate
01:44AM 7.0896 -73.8664 138° Southeast  Level FlightAware Approximate
01:45AM 6.9867 -73.7837 152° Southeast  Level FlightAware Approximate
01:46AM 6.8702 -73.7204 152° Southeast  Level FlightAware Approximate
01:47AM 6.7538 -73.6571 152° Southeast  Level FlightAware Approximate
01:48AM 6.6373 -73.5938 152° Southeast  Level FlightAware Approximate
01:49AM 6.5208 -73.5306 152° Southeast  Level FlightAware Approximate
01:50AM 6.4043 -73.4673 152° Southeast  Level FlightAware Approximate
01:51AM 6.2878 -73.4042 152° Southeast  Level FlightAware Approximate
01:52AM 6.1713 -73.3410 152° Southeast  Level FlightAware Approximate
01:53AM 6.0548 -73.2779 152° Southeast  Level FlightAware Approximate
01:54AM 5.9383 -73.2148 152° Southeast  Level FlightAware Approximate
01:55AM 5.8217 -73.1517 152° Southeast  Level FlightAware Approximate
01:56AM 5.7052 -73.0887 152° Southeast  Level FlightAware Approximate
01:57AM 5.5886 -73.0256 152° Southeast  Level FlightAware Approximate
01:58AM 5.4721 -72.9626 152° Southeast  Level FlightAware Approximate
01:59AM 5.3555 -72.8997 152° Southeast  Level FlightAware Approximate
02:00AM 5.2390 -72.8367 152° Southeast  Level FlightAware Approximate
02:01AM 5.1224 -72.7738 152° Southeast  Level FlightAware Approximate
02:02AM 5.0058 -72.7109 152° Southeast  Level FlightAware Approximate
02:03AM 4.8892 -72.6480 152° Southeast  Level FlightAware Approximate
02:04AM 4.7726 -72.5852 152° Southeast  Level FlightAware Approximate
02:05AM 4.6560 -72.5223 152° Southeast  Level FlightAware Approximate
02:06AM 4.5394 -72.4595 152° Southeast  Level FlightAware Approximate
02:07AM 4.4228 -72.3967 152° Southeast  Level FlightAware Approximate
02:08AM 4.3062 -72.3339 152° Southeast  Level FlightAware Approximate
02:09AM 4.1896 -72.2712 152° Southeast  Level FlightAware Approximate
02:10AM 4.0730 -72.2084 152° Southeast  Level FlightAware Approximate
02:11AM 3.9564 -72.1457 152° Southeast  Level FlightAware Approximate
02:12AM 3.8464 -72.0721 145° Southeast  Level FlightAware Approximate
02:13AM 3.7382 -71.9958 145° Southeast  Level FlightAware Approximate
02:14AM 3.6299 -71.9195 145° Southeast  Level FlightAware Approximate
02:15AM 3.5216 -71.8433 145° Southeast  Level FlightAware Approximate
02:16AM 3.4133 -71.7670 145° Southeast  Level FlightAware Approximate
02:17AM 3.3050 -71.6908 145° Southeast  Level FlightAware Approximate
02:18AM 3.1967 -71.6146 145° Southeast  Level FlightAware Approximate
02:19AM 3.0884 -71.5384 145° Southeast  Level FlightAware Approximate
02:20AM 2.9801 -71.4622 145° Southeast  Level FlightAware Approximate
02:21AM 2.8718 -71.3861 145° Southeast  Level FlightAware Approximate
02:22AM 2.7635 -71.3100 145° Southeast  Level FlightAware Approximate
02:23AM 2.6552 -71.2338 145° Southeast  Level FlightAware Approximate
02:24AM 2.5469 -71.1577 145° Southeast  Level FlightAware Approximate
02:25AM 2.4386 -71.0814 145° Southeast  Level FlightAware Approximate
02:26AM 2.3304 -71.0052 145° Southeast  Level FlightAware Approximate
02:27AM 2.2222 -70.9290 145° Southeast  Level FlightAware Approximate
02:28AM 2.1139 -70.8528 145° Southeast  Level FlightAware Approximate
02:29AM 2.0057 -70.7766 145° Southeast  Level FlightAware Approximate
02:30AM 1.8974 -70.7004 145° Southeast  Level FlightAware Approximate
02:31AM 1.7891 -70.6243 145° Southeast  Level FlightAware Approximate
02:32AM 1.6809 -70.5481 145° Southeast  Level FlightAware Approximate
02:33AM 1.5726 -70.4719 145° Southeast  Level FlightAware Approximate
02:34AM 1.4643 -70.3958 145° Southeast  Level FlightAware Approximate
02:35AM 1.3561 -70.3196 145° Southeast  Level FlightAware Approximate
02:36AM 1.2478 -70.2435 145° Southeast  Level FlightAware Approximate
02:37AM 1.1477 -70.1571 138° Southeast  Level FlightAware Approximate
02:38AM 1.0488 -70.0691 138° Southeast  Level FlightAware Approximate
02:39AM 0.9500 -69.9810 138° Southeast  Level FlightAware Approximate
02:40AM 0.8511 -69.8930 138° Southeast  Level FlightAware Approximate
02:41AM 0.7523 -69.8050 138° Southeast  Level FlightAware Approximate
02:42AM 0.6534 -69.7170 138° Southeast  Level FlightAware Approximate
02:43AM 0.5545 -69.6290 138° Southeast  Level FlightAware Approximate
02:44AM 0.4557 -69.5411 138° Southeast  Level FlightAware Approximate
02:45AM 0.3568 -69.4531 138° Southeast  Level FlightAware Approximate
02:46AM 0.2579 -69.3651 138° Southeast  Level FlightAware Approximate
02:47AM 0.1591 -69.2771 138° Southeast  Level FlightAware Approximate
02:48AM 0.0602 -69.1891 138° Southeast  Level FlightAware Approximate
02:49AM -0.0387 -69.1011 138° Southeast  Level FlightAware Approximate
02:50AM -0.1375 -69.0131 138° Southeast  Level FlightAware Approximate
02:51AM -0.2364 -68.9251 138° Southeast  Level FlightAware Approximate
02:52AM -0.3353 -68.8372 138° Southeast  Level FlightAware Approximate
02:53AM -0.4342 -68.7492 138° Southeast  Level FlightAware Approximate
02:54AM -0.5330 -68.6612 138° Southeast  Level FlightAware Approximate
02:55AM -0.6319 -68.5732 138° Southeast  Level FlightAware Approximate
02:56AM -0.7308 -68.4852 138° Southeast  Level FlightAware Approximate
02:57AM -0.8296 -68.3972 138° Southeast  Level FlightAware Approximate
02:58AM -0.9285 -68.3092 138° Southeast  Level FlightAware Approximate
02:59AM -1.0273 -68.2212 138° Southeast  Level FlightAware Approximate
03:00AM -1.1262 -68.1331 138° Southeast  Level FlightAware Approximate
03:01AM -1.2250 -68.0451 138° Southeast  Level FlightAware Approximate
03:02AM -1.3239 -67.9571 138° Southeast  Level FlightAware Approximate
03:03AM -1.4227 -67.8690 138° Southeast  Level FlightAware Approximate
03:04AM -1.5216 -67.7810 138° Southeast  Level FlightAware Approximate
03:05AM -1.6204 -67.6930 138° Southeast  Level FlightAware Approximate
03:06AM -1.7192 -67.6049 138° Southeast  Level FlightAware Approximate
03:07AM -1.8181 -67.5168 138° Southeast  Level FlightAware Approximate
03:08AM -1.9169 -67.4287 138° Southeast  Level FlightAware Approximate
03:09AM -2.0157 -67.3407 138° Southeast  Level FlightAware Approximate
03:10AM -2.1146 -67.2526 138° Southeast  Level FlightAware Approximate
03:11AM -2.2134 -67.1645 138° Southeast  Level FlightAware Approximate
03:12AM -2.3122 -67.0763 138° Southeast  Level FlightAware Approximate
03:13AM -2.4110 -66.9882 138° Southeast  Level FlightAware Approximate
03:14AM -2.5098 -66.9000 138° Southeast  Level FlightAware Approximate
03:15AM -2.6086 -66.8119 138° Southeast  Level FlightAware Approximate
03:16AM -2.7073 -66.7237 138° Southeast  Level FlightAware Approximate
03:17AM -2.8061 -66.6355 138° Southeast  Level FlightAware Approximate
03:18AM -2.9049 -66.5473 138° Southeast  Level FlightAware Approximate
03:19AM -3.0036 -66.4591 138° Southeast  Level FlightAware Approximate
03:20AM -3.1024 -66.3709 138° Southeast  Level FlightAware Approximate
03:21AM -3.2012 -66.2826 138° Southeast  Level FlightAware Approximate
03:22AM -3.2999 -66.1944 138° Southeast  Level FlightAware Approximate
03:23AM -3.3986 -66.1061 138° Southeast  Level FlightAware Approximate
03:24AM -3.4974 -66.0178 138° Southeast  Level FlightAware Approximate
03:25AM -3.5961 -65.9294 138° Southeast  Level FlightAware Approximate
03:26AM -3.6948 -65.8411 138° Southeast  Level FlightAware Approximate
03:27AM -3.7935 -65.7527 138° Southeast  Level FlightAware Approximate
03:28AM -3.8922 -65.6644 138° Southeast  Level FlightAware Approximate
03:29AM -3.9909 -65.5760 138° Southeast  Level FlightAware Approximate
03:30AM -4.0895 -65.4875 138° Southeast  Level FlightAware Approximate
03:31AM -4.1882 -65.3991 138° Southeast  Level FlightAware Approximate
03:32AM -4.2868 -65.3106 138° Southeast  Level FlightAware Approximate
03:33AM -4.3855 -65.2221 138° Southeast  Level FlightAware Approximate
03:34AM -4.4841 -65.1336 138° Southeast  Level FlightAware Approximate
03:35AM -4.5827 -65.0451 138° Southeast  Level FlightAware Approximate
03:36AM -4.6813 -64.9565 138° Southeast  Level FlightAware Approximate
03:37AM -4.7799 -64.8679 138° Southeast  Level FlightAware Approximate
03:38AM -4.8785 -64.7793 138° Southeast  Level FlightAware Approximate
03:39AM -4.9771 -64.6907 138° Southeast  Level FlightAware Approximate
03:40AM -5.0757 -64.6020 138° Southeast  Level FlightAware Approximate
03:41AM -5.1742 -64.5133 138° Southeast  Level FlightAware Approximate
03:42AM -5.2728 -64.4246 138° Southeast  Level FlightAware Approximate
03:43AM -5.3713 -64.3359 138° Southeast  Level FlightAware Approximate
03:44AM -5.4698 -64.2471 138° Southeast  Level FlightAware Approximate
03:45AM -5.5683 -64.1583 138° Southeast  Level FlightAware Approximate
03:46AM -5.6668 -64.0694 138° Southeast  Level FlightAware Approximate
03:47AM -5.7653 -63.9805 138° Southeast  Level FlightAware Approximate
03:48AM -5.8637 -63.8917 138° Southeast  Level FlightAware Approximate
03:49AM -5.9622 -63.8027 138° Southeast  Level FlightAware Approximate
03:50AM -6.0606 -63.7138 138° Southeast  Level FlightAware Approximate
03:51AM -6.1590 -63.6248 138° Southeast  Level FlightAware Approximate
03:52AM -6.2575 -63.5357 138° Southeast  Level FlightAware Approximate
03:53AM -6.3558 -63.4467 138° Southeast  Level FlightAware Approximate
03:54AM -6.4542 -63.3576 138° Southeast  Level FlightAware Approximate
03:55AM -6.5526 -63.2685 138° Southeast  Level FlightAware Approximate
03:56AM -6.6509 -63.1793 138° Southeast  Level FlightAware Approximate
03:57AM -6.7492 -63.0901 138° Southeast  Level FlightAware Approximate
03:58AM -6.8475 -63.0009 138° Southeast  Level FlightAware Approximate
03:59AM -6.9458 -62.9116 138° Southeast  Level FlightAware Approximate
04:00AM -7.0441 -62.8223 138° Southeast  Level FlightAware Approximate
04:01AM -7.1424 -62.7329 138° Southeast  Level FlightAware Approximate
04:02AM -7.2406 -62.6435 138° Southeast  Level FlightAware Approximate
04:03AM -7.3389 -62.5541 138° Southeast  Level FlightAware Approximate
04:04AM -7.4371 -62.4647 138° Southeast  Level FlightAware Approximate
04:05AM -7.5353 -62.3752 138° Southeast  Level FlightAware Approximate
04:06AM -7.6334 -62.2856 138° Southeast  Level FlightAware Approximate
04:07AM -7.7316 -62.1960 138° Southeast  Level FlightAware Approximate
04:08AM -7.8297 -62.1064 138° Southeast  Level FlightAware Approximate
04:09AM -7.9278 -62.0167 138° Southeast  Level FlightAware Approximate
04:10AM -8.0259 -61.9270 138° Southeast  Level FlightAware Approximate
04:11AM -8.1240 -61.8373 138° Southeast  Level FlightAware Approximate
04:12AM -8.2221 -61.7475 138° Southeast  Level FlightAware Approximate
04:13AM -8.3201 -61.6576 138° Southeast  Level FlightAware Approximate
04:14AM -8.4181 -61.5677 138° Southeast  Level FlightAware Approximate
04:15AM -8.5161 -61.4778 138° Southeast  Level FlightAware Approximate
04:16AM -8.6138 -61.3881 138° Southeast  Level FlightAware Approximate
04:17AM -8.7114 -61.2984 138° Southeast  Level FlightAware Approximate
04:18AM -8.8090 -61.2087 138° Southeast  Level FlightAware Approximate
04:19AM -8.9065 -61.1189 138° Southeast  Level FlightAware Approximate
04:20AM -9.0041 -61.0290 138° Southeast  Level FlightAware Approximate
04:21AM -9.1016 -60.9391 138° Southeast  Level FlightAware Approximate
04:22AM -9.1991 -60.8492 138° Southeast  Level FlightAware Approximate
04:23AM -9.2966 -60.7592 138° Southeast  Level FlightAware Approximate
04:24AM -9.3940 -60.6691 138° Southeast  Level FlightAware Approximate
04:25AM -9.4915 -60.5790 138° Southeast  Level FlightAware Approximate
04:26AM -9.5889 -60.4889 138° Southeast  Level FlightAware Approximate
04:27AM -9.6863 -60.3987 138° Southeast  Level FlightAware Approximate
04:28AM -9.7836 -60.3084 138° Southeast  Level FlightAware Approximate
04:29AM -9.8810 -60.2181 138° Southeast  Level FlightAware Approximate
04:30AM -9.9783 -60.1278 138° Southeast  Level FlightAware Approximate
04:31AM -10.0756 -60.0373 138° Southeast  Level FlightAware Approximate
04:32AM -10.1728 -59.9469 138° Southeast  Level FlightAware Approximate
04:33AM -10.2701 -59.8563 138° Southeast  Level FlightAware Approximate
04:34AM -10.3673 -59.7658 137° Southeast  Level FlightAware Approximate
04:35AM -10.4645 -59.6751 137° Southeast  Level FlightAware Approximate
04:36AM -10.5617 -59.5844 137° Southeast  Level FlightAware Approximate
04:37AM -10.6588 -59.4937 137° Southeast  Level FlightAware Approximate
04:38AM -10.7564 -59.4024 137° Southeast  Level FlightAware Approximate
04:39AM -10.8540 -59.3111 137° Southeast  Level FlightAware Approximate
04:40AM -10.9516 -59.2196 137° Southeast  Level FlightAware Approximate
04:41AM -11.0492 -59.1282 137° Southeast  Level FlightAware Approximate
04:42AM -11.1467 -59.0366 137° Southeast  Level FlightAware Approximate
04:43AM -11.2442 -58.9450 137° Southeast  Level FlightAware Approximate
04:44AM -11.3417 -58.8534 137° Southeast  Level FlightAware Approximate
04:45AM -11.4391 -58.7617 137° Southeast  Level FlightAware Approximate
04:46AM -11.5365 -58.6699 137° Southeast  Level FlightAware Approximate
04:47AM -11.6339 -58.5780 137° Southeast  Level FlightAware Approximate
04:48AM -11.7312 -58.4861 137° Southeast  Level FlightAware Approximate
04:49AM -11.8286 -58.3942 137° Southeast  Level FlightAware Approximate
04:50AM -11.9259 -58.3021 137° Southeast  Level FlightAware Approximate
04:51AM -12.0231 -58.2100 137° Southeast  Level FlightAware Approximate
04:52AM -12.1203 -58.1178 137° Southeast  Level FlightAware Approximate
04:53AM -12.2176 -58.0256 137° Southeast  Level FlightAware Approximate
04:54AM -12.3147 -57.9333 137° Southeast  Level FlightAware Approximate
04:55AM -12.4119 -57.8409 137° Southeast  Level FlightAware Approximate
04:56AM -12.5090 -57.7485 137° Southeast  Level FlightAware Approximate
04:57AM -12.6060 -57.6560 137° Southeast  Level FlightAware Approximate
04:58AM -12.7031 -57.5634 137° Southeast  Level FlightAware Approximate
04:59AM -12.8001 -57.4707 137° Southeast  Level FlightAware Approximate
05:00AM -12.8971 -57.3780 137° Southeast  Level FlightAware Approximate
05:01AM -12.9940 -57.2852 137° Southeast  Level FlightAware Approximate
05:02AM -13.0910 -57.1923 137° Southeast  Level FlightAware Approximate
05:03AM -13.1878 -57.0994 137° Southeast  Level FlightAware Approximate
05:04AM -13.2847 -57.0064 137° Southeast  Level FlightAware Approximate
05:05AM -13.3815 -56.9133 137° Southeast  Level FlightAware Approximate
05:06AM -13.4783 -56.8201 137° Southeast  Level FlightAware Approximate
05:07AM -13.5750 -56.7269 137° Southeast  Level FlightAware Approximate
05:08AM -13.6718 -56.6335 137° Southeast  Level FlightAware Approximate
05:09AM -13.7684 -56.5401 137° Southeast  Level FlightAware Approximate
05:10AM -13.8651 -56.4467 137° Southeast  Level FlightAware Approximate
05:11AM -13.9617 -56.3531 137° Southeast  Level FlightAware Approximate
05:12AM -14.0583 -56.2595 137° Southeast  Level FlightAware Approximate
05:13AM -14.1548 -56.1658 137° Southeast  Level FlightAware Approximate
05:14AM -14.2513 -56.0720 137° Southeast  Level FlightAware Approximate
05:15AM -14.3477 -55.9781 137° Southeast  Level FlightAware Approximate
05:16AM -14.4442 -55.8842 137° Southeast  Level FlightAware Approximate
05:17AM -14.5406 -55.7901 137° Southeast  Level FlightAware Approximate
05:18AM -14.6369 -55.6960 137° Southeast  Level FlightAware Approximate
05:19AM -14.7332 -55.6018 137° Southeast  Level FlightAware Approximate
05:20AM -14.8295 -55.5076 137° Southeast  Level FlightAware Approximate
05:21AM -14.9257 -55.4132 137° Southeast  Level FlightAware Approximate
05:22AM -15.0219 -55.3188 137° Southeast  Level FlightAware Approximate
05:23AM -15.1181 -55.2242 137° Southeast  Level FlightAware Approximate
05:24AM -15.2142 -55.1296 136° Southeast  Level FlightAware Approximate
05:25AM -15.3103 -55.0349 136° Southeast  Level FlightAware Approximate
05:26AM -15.4064 -54.9401 136° Southeast  Level FlightAware Approximate
05:27AM -15.5023 -54.8452 136° Southeast  Level FlightAware Approximate
05:28AM -15.5983 -54.7503 136° Southeast  Level FlightAware Approximate
05:29AM -15.6942 -54.6552 136° Southeast  Level FlightAware Approximate
05:30AM -15.7901 -54.5601 136° Southeast  Level FlightAware Approximate
05:31AM -15.8863 -54.4645 136° Southeast  Level FlightAware Approximate
05:32AM -15.9824 -54.3688 136° Southeast  Level FlightAware Approximate
05:33AM -16.0785 -54.2731 136° Southeast  Level FlightAware Approximate
05:34AM -16.1746 -54.1772 136° Southeast  Level FlightAware Approximate
05:35AM -16.2706 -54.0813 136° Southeast  Level FlightAware Approximate
05:36AM -16.3665 -53.9852 136° Southeast  Level FlightAware Approximate
05:37AM -16.4625 -53.8891 136° Southeast  Level FlightAware Approximate
05:38AM -16.5583 -53.7929 136° Southeast  Level FlightAware Approximate
05:39AM -16.6542 -53.6966 136° Southeast  Level FlightAware Approximate
05:40AM -16.7500 -53.6002 136° Southeast  Level FlightAware Approximate
05:41AM -16.8457 -53.5036 136° Southeast  Level FlightAware Approximate
05:42AM -16.9414 -53.4070 136° Southeast  Level FlightAware Approximate
05:43AM -17.0371 -53.3103 136° Southeast  Level FlightAware Approximate
05:44AM -17.1327 -53.2135 136° Southeast  Level FlightAware Approximate
05:45AM -17.2282 -53.1166 136° Southeast  Level FlightAware Approximate
05:46AM -17.3237 -53.0196 136° Southeast  Level FlightAware Approximate
05:47AM -17.4192 -52.9225 136° Southeast  Level FlightAware Approximate
05:48AM -17.5146 -52.8253 136° Southeast  Level FlightAware Approximate
05:49AM -17.6100 -52.7279 136° Southeast  Level FlightAware Approximate
05:50AM -17.7053 -52.6305 136° Southeast  Level FlightAware Approximate
05:51AM -17.8006 -52.5330 136° Southeast  Level FlightAware Approximate
05:52AM -17.8958 -52.4354 136° Southeast  Level FlightAware Approximate
05:53AM -17.9910 -52.3376 136° Southeast  Level FlightAware Approximate
05:54AM -18.0861 -52.2398 136° Southeast  Level FlightAware Approximate
05:55AM -18.1812 -52.1419 136° Southeast  Level FlightAware Approximate
05:56AM -18.2763 -52.0438 136° Southeast  Level FlightAware Approximate
05:57AM -18.3712 -51.9456 136° Southeast  Level FlightAware Approximate
05:58AM -18.4662 -51.8474 136° Southeast  Level FlightAware Approximate
05:59AM -18.5610 -51.7490 136° Southeast  Level FlightAware Approximate
06:00AM -18.6557 -51.6507 135° Southeast  Level FlightAware Approximate
06:00AM -19.0980 -50.5640 135° Southeast 521 600 35,000  Level FlightAware
06:01AM -18.7503 -51.5523 135° Southeast  Level FlightAware Approximate
06:01AM -19.1870 -50.4660 134° Southeast 521 600 35,000  Level FlightAware
06:02AM -19.2630 -50.3840 134° Southeast 521 600 35,000  Level FlightAware
06:02AM -19.3290 -50.3100 133° Southeast 522 601 35,000  Level FlightAware
06:03AM -19.4000 -50.2320 134° Southeast 524 603 35,000  Level FlightAware
06:04AM -19.4670 -50.1590 134° Southeast 525 604 35,000  Level FlightAware
06:04AM -19.5410 -50.0770 134° Southeast 526 605 35,000  Level FlightAware
06:05AM -19.5820 -50.0320 134° Southeast 527 606 35,000  Level FlightAware
06:05AM -19.6650 -49.9420 134° Southeast 528 608 35,000  Level FlightAware
06:06AM -19.7320 -49.8680 134° Southeast 529 609 35,000  Level FlightAware
06:07AM -19.8070 -49.7870 135° Southeast 530 610 35,000  Level FlightAware
06:08AM -19.8750 -49.7120 134° Southeast 531 611 35,000  Level FlightAware
06:08AM -19.9470 -49.6330 134° Southeast 533 613 35,000  Level FlightAware
06:09AM -20.0190 -49.5540 134° Southeast 533 613 35,000  Level FlightAware
06:10AM -20.0880 -49.4780 134° Southeast 528 608 35,000  Level FlightAware
06:10AM -20.1670 -49.3920 134° Southeast 524 603 35,000  Level FlightAware
06:11AM -20.2170 -49.3360 134° Southeast 525 604 35,000  Level FlightAware
06:12AM -20.3010 -49.2440 134° Southeast 526 605 35,000  Level FlightAware
06:12AM -20.3790 -49.1570 134° Southeast 530 610 35,000  Level FlightAware
06:13AM -20.4470 -49.0820 134° Southeast 532 612 35,000  Level FlightAware
06:14AM -20.5160 -49.0050 134° Southeast 533 613 35,000  Level FlightAware
06:15AM -20.5940 -48.9180 134° Southeast 534 615 35,000  Level FlightAware
06:15AM -20.6630 -48.8420 134° Southeast 537 618 35,000  Level FlightAware
06:16AM -20.7330 -48.7640 134° Southeast 538 619 35,000  Level FlightAware
06:17AM -20.8040 -48.6840 134° Southeast 540 621 35,000  Level FlightAware
06:17AM -20.8830 -48.5960 134° Southeast 539 620 35,000  Level FlightAware
06:18AM -20.9500 -48.5210 134° Southeast 540 621 35,000  Level FlightAware
06:19AM -21.0160 -48.4470 134° Southeast 540 621 35,000  Level FlightAware
06:19AM -21.0810 -48.3730 133° Southeast 540 621 35,000  Level FlightAware
06:20AM -21.1620 -48.2800 133° Southeast 540 621 35,000  Level FlightAware
06:21AM -21.2400 -48.1930 134° Southeast 540 621 35,000  Level FlightAware
06:22AM -21.3150 -48.1080 133° Southeast 539 620 35,000  Level FlightAware
06:22AM -21.3830 -48.0310 133° Southeast 539 620 35,000  Level FlightAware
06:23AM -21.4580 -47.9460 133° Southeast 539 620 35,000  Level FlightAware
06:24AM -21.5270 -47.8680 134° Southeast 539 620 35,000  Level FlightAware
06:24AM -21.5950 -47.7910 134° Southeast 540 621 35,000  Level FlightAware
06:25AM -21.6780 -47.6960 133° Southeast 539 620 35,000  Level FlightAware
06:26AM -21.7460 -47.6190 134° Southeast 535 616 35,000 -540 Level FlightAware
06:26AM -21.8200 -47.5340 133° Southeast 529 609 34,300 -1,500 Descending FlightAware
06:27AM -21.8860 -47.4570 133° Southeast 527 606 32,900 -2,100 Descending FlightAware
06:28AM -21.9530 -47.3820 134° Southeast 513 590 31,500 -2,160 Descending FlightAware
06:29AM -22.0390 -47.3220 147° Southeast 489 563 29,900 -2,160 Descending FlightAware
06:29AM -22.1210 -47.2880 159° South 479 551 28,500 -2,160 Descending FlightAware
06:30AM -22.2000 -47.2560 159° South 473 544 27,100 -2,160 Descending FlightAware
06:31AM -22.2960 -47.2160 159° South 467 537 25,500 -2,100 Descending FlightAware
06:31AM -22.3860 -47.1790 159° South 455 524 23,900 -2,160 Descending FlightAware
06:32AM -22.4640 -47.1460 159° South 446 513 22,500 -2,100 Descending FlightAware
06:33AM -22.5480 -47.1100 158° South 436 502 21,000 -2,100 Descending FlightAware
06:33AM -22.6120 -47.0830 159° South 430 495 19,800 -2,100 Descending FlightAware
06:34AM -22.7020 -47.0450 159° South 421 484 18,100 -2,100 Descending FlightAware
06:35AM -22.7750 -47.0150 159° South 411 473 16,800 -2,100 Descending FlightAware
06:36AM -22.8480 -46.9840 159° South 402 463 15,300 -1,980 Descending FlightAware
06:36AM -22.9230 -46.9530 159° South 379 436 14,000 -1,860 Descending FlightAware
06:37AM -22.9850 -46.9260 158° South 343 395 12,700 -1,860 Descending FlightAware
06:38AM -23.0470 -46.9000 159° South 312 359 11,400 -1,800 Descending FlightAware
06:38AM -23.1030 -46.8760 158° South 306 352 10,200 -1,440 Descending FlightAware
06:39AM -23.1350 -46.8560 150° Southeast 298 343 9,800 -1,140 Descending FlightAware
06:39AM -23.1670 -46.8340 148° Southeast 295 339 9,200 -1,320 Descending FlightAware
06:40AM -23.2310 -46.7900 148° Southeast 288 331 8,000 -1,440 Descending FlightAware
06:41AM -23.2650 -46.7680 149° Southeast 292 336 7,200 -1,380 Descending FlightAware
06:41AM -23.2960 -46.7470 148° Southeast 289 333 6,700 -1,320 Descending FlightAware
06:42AM -23.3300 -46.7240 148° Southeast 287 330 6,000 -1,440 Descending FlightAware
06:42AM -23.3590 -46.7050 149° Southeast 285 328 5,400 -900 Descending FlightAware
06:43AM -23.3920 -46.6830 149° Southeast 265 305 5,200 -540 Descending FlightAware
06:43AM -23.4190 -46.6640 147° Southeast 251 289 4,900 -600 Descending FlightAware
06:43AM -23.4460 -46.6470 150° Southeast 233 268 4,700 -540 Descending FlightAware
06:44AM -23.4700 -46.6280 144° Southeast 212 244 4,400 -300 Descending FlightAware
06:44AM -23.4740 -46.6160 110° East 206 237 4,500 -600 Climbing FlightAware
06:45AM -23.4640 -46.5780 74° East 190 219 3,900 -960 Descending FlightAware
06:46AM -23.4540 -46.5430 73° East 154 177 3,200 -900 Descending FlightAware
06:46AM -23.4480 -46.5220 73° East 138 159 2,900 -720 Descending FlightAware
06:47AM -23.4430 -46.5020 75° East 136 157 2,500 -780 Descending FlightAware
06:47AM -23.4380 -46.4850 72° East 136 157 2,200 -720 Descending FlightAware
06:47AM -23.4360 -46.4770 75° East 110 127 -8,280 Descending FlightAware
06:48AM -23.4340 -46.4690 75° East 45 52  Level FlightAware